createdAt,value
2022-12-15T02:53:26.010Z,93.3
2022-12-15T02:56:25.282Z,92.3
2022-12-15T02:57:41.692Z,91.5
2022-12-15T03:00:14.273Z,91.3
2022-12-15T03:01:30.585Z,91.1
2022-12-15T03:02:46.876Z,91
2022-12-15T03:04:03.174Z,91.1
2022-12-15T03:05:19.463Z,91.2
2022-12-15T03:06:35.757Z,91.3
2022-12-15T03:07:52.044Z,91.9
2022-12-15T03:09:08.355Z,92.2
2022-12-15T03:10:24.635Z,92.7
2022-12-15T03:11:40.938Z,93.1
2022-12-15T03:12:57.232Z,93.1
2022-12-15T03:14:13.542Z,93.1
2022-12-15T03:15:28.841Z,93.1
2022-12-15T03:16:45.140Z,93
2022-12-15T03:18:01.442Z,93.1
2022-12-15T03:19:17.729Z,93.2
2022-12-15T03:20:34.033Z,93.2
2022-12-15T03:21:50.322Z,93.2
2022-12-15T03:23:06.609Z,93.2
2022-12-15T03:24:23.057Z,93.2
2022-12-15T03:25:38.362Z,93.2
2022-12-15T03:26:54.659Z,93.3
2022-12-15T03:28:10.961Z,93.3
2022-12-15T03:29:27.258Z,93.2
2022-12-15T03:30:43.544Z,92.9
2022-12-15T03:31:59.839Z,93
2022-12-15T03:33:16.144Z,93.1
2022-12-15T03:34:32.447Z,92.9
2022-12-15T03:35:48.725Z,92.8
2022-12-15T03:37:05.029Z,92.7
2022-12-15T03:38:20.354Z,92.7
2022-12-15T03:39:36.634Z,93.4
2022-12-15T03:40:52.932Z,93.9
2022-12-15T03:42:09.237Z,93.9
2022-12-15T03:43:25.530Z,93.7
2022-12-15T03:44:41.814Z,93.7
2022-12-15T03:45:58.119Z,93.5
2022-12-15T03:47:14.418Z,93.7
2022-12-15T03:48:30.704Z,93.7
2022-12-15T03:49:46.999Z,93.3
2022-12-15T03:51:02.315Z,92.9
2022-12-15T03:52:17.626Z,92.9
2022-12-15T03:54:50.222Z,93.8
2022-12-15T03:56:06.528Z,94
2022-12-15T03:58:39.109Z,94.2
2022-12-15T03:59:55.402Z,94.3
2022-12-15T04:01:11.701Z,93.9
2022-12-15T04:02:27.992Z,93.7
2022-12-15T04:03:44.299Z,93.5
2022-12-15T04:06:16.890Z,93.3
2022-12-15T04:07:33.191Z,93.3
2022-12-15T04:08:48.498Z,93.2
2022-12-15T04:10:03.804Z,93.2
2022-12-15T04:11:20.109Z,93
2022-12-15T04:12:35.432Z,92.7
2022-12-15T04:13:50.741Z,92.3
2022-12-15T04:15:07.026Z,92.3
2022-12-15T04:16:23.331Z,92.3
2022-12-15T04:17:39.621Z,92.3
2022-12-15T04:18:55.931Z,92.5
2022-12-15T04:20:12.218Z,92.7
2022-12-15T04:21:28.503Z,92.8
2022-12-15T04:22:44.812Z,92.8
2022-12-15T04:24:01.103Z,92.8
2022-12-15T04:25:17.395Z,92.8
2022-12-15T04:26:32.000Z,92.9
2022-12-15T04:27:48.031Z,92.9
2022-12-15T04:29:04.336Z,92.7
2022-12-15T04:30:20.628Z,92.7
2022-12-15T04:31:36.909Z,92.5
2022-12-15T04:32:53.213Z,92.4
2022-12-15T04:34:09.505Z,92.7
2022-12-15T04:35:25.806Z,92.7
2022-12-15T04:36:42.099Z,92.9
2022-12-15T04:37:58.392Z,93
2022-12-15T04:39:14.697Z,93.3
2022-12-15T04:40:30.989Z,93.1
2022-12-15T04:41:47.281Z,92.9
2022-12-15T04:43:03.575Z,92.4
2022-12-15T04:44:18.879Z,92
2022-12-15T04:45:35.195Z,91.5
2022-12-15T04:46:51.475Z,91
2022-12-15T04:48:07.773Z,90.6
2022-12-15T04:49:24.065Z,90.2
2022-12-15T04:50:40.359Z,89.6
2022-12-15T04:51:56.671Z,89.4
2022-12-15T04:53:11.970Z,89.3
2022-12-15T04:54:27.286Z,89.1
2022-12-15T04:55:43.597Z,89.3
2022-12-15T04:56:59.877Z,89.5
2022-12-15T04:58:16.188Z,89.4
2022-12-15T04:59:32.475Z,89.3
2022-12-15T05:00:48.770Z,89.2
2022-12-15T05:02:05.057Z,89.2
2022-12-15T05:03:21.368Z,89.3
2022-12-15T05:04:37.650Z,90
2022-12-15T05:05:53.948Z,90.5
2022-12-15T05:07:10.248Z,90.9
2022-12-15T05:08:26.538Z,91
2022-12-15T05:09:42.834Z,90.9
2022-12-15T05:10:58.155Z,90.9
2022-12-15T05:12:14.449Z,90.8
2022-12-15T05:13:30.735Z,90.3
2022-12-15T05:14:47.037Z,90.6
2022-12-15T05:16:03.339Z,90.8
2022-12-15T05:17:19.643Z,90.3
2022-12-15T05:18:35.926Z,90.3
2022-12-15T05:19:51.240Z,90.8
2022-12-15T05:21:06.556Z,90.9
2022-12-15T05:22:22.848Z,90.4
2022-12-15T05:23:39.158Z,90.3
2022-12-15T05:24:55.440Z,90.3
2022-12-15T05:26:11.737Z,89.8
2022-12-15T05:27:28.033Z,89.7
2022-12-15T05:28:44.339Z,90.2
2022-12-15T05:30:00.637Z,90.4
2022-12-15T05:31:16.931Z,90.3
2022-12-15T05:32:33.217Z,90.2
2022-12-15T05:33:49.513Z,90.2
2022-12-15T05:35:05.816Z,89.9
2022-12-15T05:36:22.110Z,89.8
2022-12-15T05:37:37.419Z,89.5
2022-12-15T05:38:53.718Z,88.9
2022-12-15T05:40:10.017Z,88.1
2022-12-15T05:41:26.300Z,87.8
2022-12-15T05:42:42.609Z,87.5
2022-12-15T05:43:58.896Z,87.7
2022-12-15T05:45:15.188Z,87.8
2022-12-15T05:46:30.516Z,87.7
2022-12-15T05:47:45.811Z,88.1
2022-12-15T05:49:01.132Z,88.3
2022-12-15T05:50:16.452Z,88.6
2022-12-15T05:51:31.774Z,89.3
2022-12-15T05:52:47.075Z,89.4
2022-12-15T05:54:03.371Z,89
2022-12-15T05:55:19.667Z,88.6
2022-12-15T05:56:35.963Z,88.5
2022-12-15T05:57:52.261Z,88.6
2022-12-15T05:59:08.562Z,88.3
2022-12-15T06:00:24.849Z,88.3
2022-12-15T06:01:41.144Z,88.5
2022-12-15T06:02:57.434Z,88.4
2022-12-15T06:04:13.737Z,88
2022-12-15T06:05:30.028Z,88
2022-12-15T06:06:46.329Z,88.3
2022-12-15T06:08:02.628Z,88.7
2022-12-15T06:09:17.942Z,89.5
2022-12-15T06:10:34.238Z,90.5
2022-12-15T06:11:50.535Z,91.4
2022-12-15T06:13:06.832Z,91.4
2022-12-15T06:14:23.111Z,91.3
2022-12-15T06:15:39.408Z,91.5
2022-12-15T06:16:55.717Z,91.1
2022-12-15T06:18:11.025Z,90.4
2022-12-15T06:19:26.343Z,89.4
2022-12-15T06:20:42.633Z,89.3
2022-12-15T06:21:57.911Z,89.6
2022-12-15T06:23:13.204Z,90.2
2022-12-15T06:24:29.503Z,90.2
2022-12-15T06:25:45.759Z,90.3
2022-12-15T06:27:01.997Z,90.2
2022-12-15T06:28:18.240Z,90.8
2022-12-15T06:29:34.548Z,91.2
2022-12-15T06:30:50.791Z,91.8
2022-12-15T06:32:07.040Z,92.2
2022-12-15T06:33:23.288Z,92.4
2022-12-15T06:34:39.528Z,92.5
2022-12-15T06:35:55.769Z,92.5
2022-12-15T06:37:12.017Z,92.5
2022-12-15T06:38:28.264Z,92.5
2022-12-15T06:39:43.510Z,92.6
2022-12-15T06:40:59.759Z,92.6
2022-12-15T06:42:15.991Z,92.5
2022-12-15T06:43:32.237Z,92.5
2022-12-15T06:44:48.476Z,92.5
2022-12-15T06:46:04.724Z,92.4
2022-12-15T06:47:20.963Z,92.6
2022-12-15T06:48:36.227Z,92.7
2022-12-15T06:49:51.494Z,92.8
2022-12-15T06:51:07.730Z,92.7
2022-12-15T06:52:23.978Z,92.8
2022-12-15T06:53:40.202Z,93
2022-12-15T06:54:56.461Z,92.8
2022-12-15T06:56:12.695Z,92.8
2022-12-15T06:57:28.942Z,92.5
2022-12-15T06:58:45.177Z,92.1
2022-12-15T07:00:01.415Z,92.1
2022-12-15T07:01:17.662Z,92.5
2022-12-15T07:02:33.893Z,92.9
2022-12-15T07:03:50.146Z,93.4
2022-12-15T07:05:06.377Z,93.6
2022-12-15T07:06:21.638Z,93.7
2022-12-15T07:07:37.878Z,93.6
2022-12-15T07:08:54.127Z,93.7
2022-12-15T07:10:10.374Z,93.8
2022-12-15T07:11:26.610Z,93.8
2022-12-15T07:12:42.847Z,93.8
2022-12-15T07:13:59.085Z,93.8
2022-12-15T07:15:15.480Z,93.5
2022-12-15T07:16:30.741Z,93.2
2022-12-15T07:17:46.971Z,93.1
2022-12-15T07:19:03.229Z,92.9
2022-12-15T07:20:19.463Z,92.9
2022-12-15T07:21:35.705Z,93.1
2022-12-15T07:22:51.944Z,93.1
2022-12-15T07:24:08.184Z,93.2
2022-12-15T07:25:24.425Z,93.2
2022-12-15T07:26:40.670Z,93.2
2022-12-15T07:27:56.908Z,93.1
2022-12-15T07:29:13.163Z,93.2
2022-12-15T07:30:29.387Z,93.4
2022-12-15T07:31:45.642Z,93.8
2022-12-15T07:33:00.887Z,93.9
2022-12-15T07:34:17.135Z,93.9
2022-12-15T07:36:49.610Z,93.7
2022-12-15T07:38:05.855Z,93.4
2022-12-15T07:39:22.114Z,93.1
2022-12-15T07:41:54.578Z,92.7
2022-12-15T07:43:10.826Z,92.8
2022-12-15T07:44:26.087Z,93
2022-12-15T07:45:41.342Z,93
2022-12-15T07:46:57.583Z,93.2
2022-12-15T07:48:13.843Z,93
2022-12-15T07:49:30.072Z,92.9
2022-12-15T07:50:46.318Z,92.9
2022-12-15T07:52:02.564Z,92.9
2022-12-15T07:53:17.832Z,92.9
2022-12-15T07:54:34.061Z,92.8
2022-12-15T07:55:50.294Z,92.7
2022-12-15T07:57:06.541Z,92.7
2022-12-15T07:58:22.781Z,92.7
2022-12-15T07:59:39.027Z,92.6
2022-12-15T08:00:55.262Z,92.3
2022-12-15T08:02:11.517Z,92.1
2022-12-15T08:03:27.758Z,92
2022-12-15T08:04:44.007Z,91.9
2022-12-15T08:06:00.245Z,91.7
2022-12-15T08:07:16.486Z,91.7
2022-12-15T08:08:32.726Z,91.7
2022-12-15T08:09:47.990Z,91.7
2022-12-15T08:11:03.234Z,91.7
2022-12-15T08:12:18.498Z,91.7
2022-12-15T08:13:33.776Z,91.8
2022-12-15T08:14:49.016Z,92
2022-12-15T08:16:05.402Z,92.1
2022-12-15T08:17:20.658Z,92
2022-12-15T08:18:36.904Z,92.1
2022-12-15T08:19:53.143Z,92.3
2022-12-15T08:21:09.400Z,92.3
2022-12-15T08:22:25.629Z,92.3
2022-12-15T08:23:41.880Z,92.3
2022-12-15T08:24:58.120Z,92.2
2022-12-15T08:26:14.351Z,92.3
2022-12-15T08:27:30.598Z,92.3
2022-12-15T08:28:46.838Z,92.2
2022-12-15T08:30:03.091Z,92.2
2022-12-15T08:31:19.315Z,92.3
2022-12-15T08:32:35.560Z,92.3
2022-12-15T08:33:50.831Z,92.3
2022-12-15T08:35:07.070Z,92.3
2022-12-15T08:36:23.295Z,92.4
2022-12-15T08:37:39.546Z,92.5
2022-12-15T08:38:55.793Z,92.5
2022-12-15T08:40:12.023Z,92.5
2022-12-15T08:41:28.280Z,92.3
2022-12-15T08:42:43.529Z,92.2
2022-12-15T08:43:58.799Z,92
2022-12-15T08:45:14.057Z,91.8
2022-12-15T08:46:29.319Z,91.7
2022-12-15T08:47:44.569Z,91.7
2022-12-15T08:48:59.830Z,91.7
2022-12-15T08:50:16.066Z,91.5
2022-12-15T08:51:32.314Z,91.4
2022-12-15T08:52:48.558Z,91.2
2022-12-15T08:54:04.802Z,91.2
2022-12-15T08:55:21.040Z,91.3
2022-12-15T08:56:37.274Z,91.1
2022-12-15T08:57:53.522Z,90.9
2022-12-15T08:59:09.761Z,90.9
2022-12-15T09:00:26.002Z,90.5
2022-12-15T09:01:42.250Z,90.3
2022-12-15T09:02:58.483Z,89.9
2022-12-15T09:04:14.740Z,89.2
2022-12-15T09:05:29.993Z,88.3
2022-12-15T09:06:46.224Z,86.2
2022-12-15T09:08:02.469Z,84.6
2022-12-15T09:09:18.711Z,82
2022-12-15T09:10:34.945Z,78.3
2022-12-15T09:11:51.184Z,75.3
2022-12-15T09:13:07.443Z,71.4
2022-12-15T09:14:23.665Z,70.6
2022-12-15T09:15:40.058Z,69.5
2022-12-15T09:16:55.315Z,66
2022-12-15T09:18:11.557Z,64.5
2022-12-15T09:19:27.799Z,63.8
2022-12-15T09:20:44.038Z,60.9
2022-12-15T09:22:00.282Z,58.4
2022-12-15T09:23:16.513Z,56.1
2022-12-15T09:24:32.753Z,54.4
2022-12-15T09:25:49.007Z,54
2022-12-15T09:27:05.240Z,52.5
2022-12-15T09:28:21.478Z,51.6
2022-12-15T09:29:37.725Z,51.2
2022-12-15T09:30:53.959Z,51.4
2022-12-15T09:32:10.189Z,52.9
2022-12-15T09:33:25.455Z,53.5
2022-12-15T09:34:41.699Z,52.1
2022-12-15T09:35:57.941Z,53
2022-12-15T09:37:14.177Z,52.3
2022-12-15T09:38:30.411Z,52.8
2022-12-15T09:39:46.656Z,51.3
2022-12-15T09:41:02.890Z,50.7
2022-12-15T09:42:18.161Z,48.4
2022-12-15T09:43:33.420Z,50.3
2022-12-15T09:44:49.655Z,51
2022-12-15T09:46:05.887Z,49.4
2022-12-15T09:47:22.128Z,48.2
2022-12-15T09:48:38.385Z,47.1
2022-12-15T09:49:54.602Z,46.6
2022-12-15T09:51:10.850Z,45.9
2022-12-15T09:52:27.082Z,45
2022-12-15T09:53:43.333Z,46.4
2022-12-15T09:54:59.579Z,45.8
2022-12-15T09:56:15.813Z,46.8
2022-12-15T09:57:32.059Z,46.3
2022-12-15T09:58:48.299Z,45
2022-12-15T10:00:03.542Z,45.1
2022-12-15T10:01:19.779Z,44.2
2022-12-15T10:02:36.015Z,44.5
2022-12-15T10:03:52.270Z,42.9
2022-12-15T10:05:08.506Z,44.4
2022-12-15T10:06:24.744Z,45
2022-12-15T10:07:40.975Z,44
2022-12-15T10:08:57.375Z,44.9
2022-12-15T10:10:12.620Z,44.8
2022-12-15T10:11:28.864Z,44.1
2022-12-15T10:12:45.095Z,45.3
2022-12-15T10:14:01.330Z,46.5
2022-12-15T10:15:17.590Z,45.9
2022-12-15T10:16:33.822Z,45.6
2022-12-15T10:17:50.059Z,46.1
2022-12-15T10:19:06.298Z,47.6
2022-12-15T10:20:22.543Z,48.7
2022-12-15T10:21:38.791Z,47.1
2022-12-15T10:22:55.033Z,47.4
2022-12-15T10:24:11.260Z,48
2022-12-15T10:25:27.489Z,49
2022-12-15T10:26:42.761Z,48.7
2022-12-15T10:27:58.991Z,49.3
2022-12-15T10:29:15.235Z,47.4
2022-12-15T10:30:31.466Z,49.1
2022-12-15T10:31:47.710Z,50
2022-12-15T10:33:03.966Z,48.8
2022-12-15T10:34:20.199Z,47.6
2022-12-15T10:35:35.458Z,47.4
2022-12-15T10:36:50.713Z,47.6
2022-12-15T10:38:05.969Z,47.8
2022-12-15T10:39:21.227Z,47.2
2022-12-15T10:40:37.475Z,45.5
2022-12-15T10:41:53.697Z,46.7
2022-12-15T10:43:09.947Z,45.6
2022-12-15T10:44:26.180Z,44.7
2022-12-15T10:45:42.436Z,44.8
2022-12-15T10:46:58.657Z,46.5
2022-12-15T10:48:14.902Z,48.5
2022-12-15T10:49:31.157Z,49.6
2022-12-15T10:50:47.385Z,47
2022-12-15T10:52:03.618Z,46.8
2022-12-15T10:53:19.865Z,46.8
2022-12-15T10:54:36.111Z,45.4
2022-12-15T10:55:51.367Z,44.8
2022-12-15T10:57:07.614Z,45.2
2022-12-15T10:58:23.849Z,46.5
2022-12-15T10:59:40.076Z,46.6
2022-12-15T11:00:56.317Z,46.7
2022-12-15T11:02:12.552Z,45.3
2022-12-15T11:03:28.798Z,45.6
2022-12-15T11:04:44.058Z,45
2022-12-15T11:05:59.323Z,43.9
2022-12-15T11:07:15.554Z,44.6
2022-12-15T11:08:31.790Z,46.6
2022-12-15T11:09:48.052Z,46.4
2022-12-15T11:11:04.267Z,44.2
2022-12-15T11:12:20.505Z,42.8
2022-12-15T11:13:36.753Z,44.8
2022-12-15T11:14:52.990Z,44.9
2022-12-15T11:16:09.246Z,43.6
2022-12-15T11:17:25.473Z,45.3
2022-12-15T11:18:41.710Z,46
2022-12-15T11:19:57.958Z,45.5
2022-12-15T11:21:14.194Z,46.6
2022-12-15T11:22:29.443Z,46
2022-12-15T11:23:45.688Z,47.2
2022-12-15T11:25:01.919Z,48.8
2022-12-15T11:26:18.168Z,47.8
2022-12-15T11:27:34.414Z,48.7
2022-12-15T11:28:50.658Z,48.2
2022-12-15T11:30:06.881Z,48.7
2022-12-15T11:31:23.133Z,50.5
2022-12-15T11:32:39.362Z,50.6
2022-12-15T11:33:55.611Z,51.3
2022-12-15T11:35:11.845Z,49.6
2022-12-15T11:36:28.080Z,49
2022-12-15T11:37:44.331Z,48.9
2022-12-15T11:38:59.587Z,51.3
2022-12-15T11:40:15.829Z,50.9
2022-12-15T11:41:32.064Z,49.9
2022-12-15T11:42:48.308Z,49
2022-12-15T11:44:04.550Z,50.4
2022-12-15T11:45:20.785Z,50.9
2022-12-15T11:46:37.014Z,50.1
2022-12-15T11:47:53.267Z,48.8
2022-12-15T11:49:09.508Z,50.1
2022-12-15T11:50:25.747Z,50.5
2022-12-15T11:51:41.993Z,49.2
2022-12-15T11:52:58.214Z,50.3
2022-12-15T11:54:14.462Z,53.5
2022-12-15T11:55:29.727Z,55.7
2022-12-15T11:56:45.958Z,57
2022-12-15T11:58:02.198Z,57.1
2022-12-15T11:59:18.437Z,56.9
2022-12-15T12:00:34.677Z,55.9
2022-12-15T12:01:50.921Z,56.7
2022-12-15T12:03:07.152Z,57.4
2022-12-15T12:04:23.391Z,57.5
2022-12-15T12:05:39.627Z,58.9
2022-12-15T12:06:55.877Z,59.3
2022-12-15T12:08:11.143Z,59.9
2022-12-15T12:09:27.379Z,60.9
2022-12-15T12:10:43.617Z,61.3
2022-12-15T12:11:59.855Z,60.9
2022-12-15T12:13:16.101Z,62.5
2022-12-15T12:14:32.332Z,62.8
2022-12-15T12:15:48.568Z,64.2
2022-12-15T12:17:04.815Z,65.4
2022-12-15T12:18:21.052Z,67.1
2022-12-15T12:19:37.298Z,68.1
2022-12-15T12:20:53.543Z,68.5
2022-12-15T12:22:09.783Z,69.4
2022-12-15T12:23:26.024Z,70.1
2022-12-15T12:24:41.274Z,70.2
2022-12-15T12:25:57.508Z,69.3
2022-12-15T12:27:13.765Z,68.7
2022-12-15T12:28:29.996Z,67.7
2022-12-15T12:29:46.232Z,67.9
2022-12-15T12:31:02.477Z,68.9
2022-12-15T12:32:18.722Z,69.3
2022-12-15T12:33:34.954Z,69.6
2022-12-15T12:34:51.201Z,69.3
2022-12-15T12:36:07.447Z,69.3
2022-12-15T12:37:23.680Z,69.4
2022-12-15T12:38:39.923Z,69.8
2022-12-15T12:39:56.168Z,71
2022-12-15T12:41:11.407Z,71.2
2022-12-15T12:42:27.646Z,70.9
2022-12-15T12:43:43.898Z,71.1
2022-12-15T12:45:00.128Z,72.6
2022-12-15T12:46:16.386Z,72.7
2022-12-15T12:47:32.613Z,72.9
2022-12-15T12:48:48.860Z,72.5
2022-12-15T12:50:05.102Z,72.3
2022-12-15T12:51:21.339Z,72.9
2022-12-15T12:52:37.586Z,73.5
2022-12-15T12:53:53.808Z,73.9
2022-12-15T12:55:10.053Z,74.2
2022-12-15T12:56:26.307Z,74.4
2022-12-15T12:57:41.565Z,74.2
2022-12-15T12:58:57.807Z,74
2022-12-15T13:00:14.038Z,74.2
2022-12-15T13:01:30.285Z,74.2
2022-12-15T13:02:46.514Z,74.4
2022-12-15T13:04:02.755Z,74
2022-12-15T13:05:19.001Z,74.5
2022-12-15T13:06:35.244Z,74.4
2022-12-15T13:07:51.476Z,74.7
2022-12-15T13:09:07.728Z,74.2
2022-12-15T13:10:23.968Z,74
2022-12-15T13:11:40.205Z,73.8
2022-12-15T13:12:56.454Z,73.6
2022-12-15T13:14:12.810Z,73.9
2022-12-15T13:15:29.049Z,74
2022-12-15T13:16:45.296Z,74.3
2022-12-15T13:18:01.537Z,75
2022-12-15T13:19:17.777Z,75
2022-12-15T13:20:34.001Z,74.5
2022-12-15T13:21:50.252Z,74.7
2022-12-15T13:23:06.505Z,74.4
2022-12-15T13:24:22.747Z,74.3
2022-12-15T13:25:38.977Z,74.4
2022-12-15T13:26:55.228Z,74.1
2022-12-15T13:28:11.464Z,74
2022-12-15T13:29:27.694Z,74.3
2022-12-15T13:30:42.955Z,74.1
2022-12-15T13:31:59.195Z,74.5
2022-12-15T13:33:15.429Z,74.8
2022-12-15T13:34:31.667Z,74.8
2022-12-15T13:35:47.913Z,74.4
2022-12-15T13:37:04.159Z,74.7
2022-12-15T13:38:20.400Z,74.1
2022-12-15T13:39:36.643Z,74.2
2022-12-15T13:40:52.881Z,74.8
2022-12-15T13:42:09.125Z,74.4
2022-12-15T13:43:25.362Z,74.5
2022-12-15T13:44:41.596Z,74.8
2022-12-15T13:45:57.842Z,74.8
2022-12-15T13:47:13.101Z,75.2
2022-12-15T13:48:29.339Z,75.1
2022-12-15T13:49:45.568Z,75.1
2022-12-15T13:51:01.812Z,75.1
2022-12-15T13:52:18.059Z,75.3
2022-12-15T13:53:34.295Z,75.1
2022-12-15T13:54:50.545Z,75.3
2022-12-15T13:56:06.789Z,75.3
2022-12-15T13:57:23.035Z,75.2
2022-12-15T13:58:39.261Z,75.5
2022-12-15T13:59:55.496Z,75.8
2022-12-15T14:01:11.754Z,75.9
2022-12-15T14:02:27.988Z,76
2022-12-15T14:03:43.242Z,75.8
2022-12-15T14:04:59.493Z,76
2022-12-15T14:06:15.727Z,76.2
2022-12-15T14:07:31.986Z,76.4
2022-12-15T14:08:48.212Z,76.3
2022-12-15T14:10:04.445Z,76.4
2022-12-15T14:11:20.682Z,76.5
2022-12-15T14:12:36.930Z,76.5
2022-12-15T14:13:53.166Z,76.5
2022-12-15T14:15:09.403Z,76.6
2022-12-15T14:16:25.658Z,77
2022-12-15T14:17:41.892Z,77
2022-12-15T14:18:58.145Z,77
2022-12-15T14:20:13.380Z,76.8
2022-12-15T14:21:29.638Z,77.1
2022-12-15T14:22:45.863Z,77.3
2022-12-15T14:24:02.121Z,77.2
2022-12-15T14:25:18.353Z,77.3
2022-12-15T14:26:34.607Z,77.4
2022-12-15T14:27:50.831Z,77.5
2022-12-15T14:29:07.084Z,77.4
2022-12-15T14:30:23.324Z,77.6
2022-12-15T14:31:39.554Z,77.5
2022-12-15T14:32:55.790Z,77.5
2022-12-15T14:34:12.041Z,77.6
2022-12-15T14:35:28.274Z,77.8
2022-12-15T14:36:43.560Z,77.7
2022-12-15T14:37:59.771Z,77.7
2022-12-15T14:39:16.015Z,77.7
2022-12-15T14:40:32.270Z,77.7
2022-12-15T14:41:48.511Z,77.8
2022-12-15T14:43:04.743Z,77.9
2022-12-15T14:44:20.995Z,78
2022-12-15T14:45:37.221Z,78.2
2022-12-15T14:46:53.466Z,78.4
2022-12-15T14:48:09.715Z,78.4
2022-12-15T14:49:25.940Z,78.6
2022-12-15T14:50:42.207Z,78.7
2022-12-15T14:51:58.429Z,78.9
2022-12-15T14:53:13.705Z,79
2022-12-15T14:54:29.940Z,79
2022-12-15T14:55:46.173Z,79.2
2022-12-15T14:57:02.424Z,79.2
2022-12-15T14:58:18.647Z,79.3
2022-12-15T14:59:34.908Z,79.4
2022-12-15T15:00:51.136Z,79.6
2022-12-15T15:02:07.383Z,79.6
2022-12-15T15:03:23.616Z,79.7
2022-12-15T15:04:39.861Z,79.5
2022-12-15T15:05:56.105Z,79.6
2022-12-15T15:07:12.333Z,79.8
2022-12-15T15:08:28.589Z,79.7
2022-12-15T15:09:43.832Z,79.6
2022-12-15T15:11:00.081Z,79.6
2022-12-15T15:12:16.334Z,79.8
2022-12-15T15:13:32.566Z,79.8
2022-12-15T15:14:48.822Z,79.8
2022-12-15T15:16:05.062Z,79.8
2022-12-15T15:17:21.290Z,80.2
2022-12-15T15:18:37.529Z,80.7
2022-12-15T15:19:53.762Z,80.7
2022-12-15T15:21:10.004Z,81
2022-12-15T15:22:26.242Z,81.2
2022-12-15T15:23:42.491Z,81.4
2022-12-15T15:24:58.737Z,81.7
2022-12-15T15:26:13.986Z,82
2022-12-15T15:27:30.236Z,82.2
2022-12-15T15:28:46.488Z,82.3
2022-12-15T15:30:02.738Z,82.5
2022-12-15T15:31:18.962Z,82.6
2022-12-15T15:32:35.201Z,82.7
2022-12-15T15:33:51.429Z,82.5
2022-12-15T15:35:07.678Z,82.5
2022-12-15T15:36:23.924Z,82
2022-12-15T15:37:40.153Z,82.1
2022-12-15T15:38:56.409Z,82.4
2022-12-15T15:40:12.640Z,82.7
2022-12-15T15:41:28.885Z,83
2022-12-15T15:42:44.193Z,83
2022-12-15T15:44:00.494Z,82.9
2022-12-15T15:45:16.787Z,83.3
2022-12-15T15:46:33.084Z,83.4
2022-12-15T15:47:49.381Z,83.4
2022-12-15T15:49:05.683Z,83.5
2022-12-15T15:50:21.968Z,83.5
2022-12-15T15:51:38.265Z,83.7
2022-12-15T15:52:54.565Z,84.2
2022-12-15T15:54:10.865Z,84.1
2022-12-15T15:55:27.150Z,84
2022-12-15T15:56:43.448Z,84.1
2022-12-15T15:57:59.729Z,84
2022-12-15T15:59:15.049Z,84
2022-12-15T16:00:31.348Z,83.8
2022-12-15T16:01:47.646Z,83.7
2022-12-15T16:03:03.936Z,83.6
2022-12-15T16:04:20.240Z,83.5
2022-12-15T16:05:36.529Z,84.1
2022-12-15T16:06:52.823Z,84.5
2022-12-15T16:08:09.122Z,84.3
2022-12-15T16:09:25.429Z,84.3
2022-12-15T16:10:41.726Z,84
2022-12-15T16:11:57.992Z,84.4
2022-12-15T16:13:14.292Z,84.6
2022-12-15T16:14:30.608Z,85.4
2022-12-15T16:15:47.016Z,85.7
2022-12-15T16:17:03.309Z,85.6
2022-12-15T16:18:19.592Z,85.6
2022-12-15T16:19:35.903Z,85.8
2022-12-15T16:20:52.180Z,86.1
2022-12-15T16:22:08.479Z,86.5
2022-12-15T16:23:23.804Z,87
2022-12-15T16:24:40.107Z,87.4
2022-12-15T16:25:56.399Z,87.5
2022-12-15T16:27:12.694Z,87.7
2022-12-15T16:28:28.980Z,87.5
2022-12-15T16:29:45.268Z,87.4
2022-12-15T16:31:01.588Z,87.7
2022-12-15T16:32:17.873Z,88.1
2022-12-15T16:33:34.171Z,88.6
2022-12-15T16:34:50.461Z,88.5
2022-12-15T16:36:06.759Z,87.6
2022-12-15T16:37:23.064Z,87.2
2022-12-15T16:38:39.357Z,87
2022-12-15T16:39:54.652Z,86.7
2022-12-15T16:41:10.952Z,86.4
2022-12-15T16:42:27.254Z,86.5
2022-12-15T16:43:43.557Z,86.8
2022-12-15T16:44:59.837Z,86.9
2022-12-15T16:46:16.147Z,86.4
2022-12-15T16:47:32.438Z,86.5
2022-12-15T16:48:48.714Z,86.7
2022-12-15T16:50:05.023Z,86.9
2022-12-15T16:51:21.330Z,87.3
2022-12-15T16:52:37.613Z,88.3
2022-12-15T16:53:53.914Z,88.5
2022-12-15T16:55:10.205Z,88.4
2022-12-15T16:56:25.507Z,88.8
2022-12-15T16:57:41.812Z,88.8
2022-12-15T16:58:58.106Z,88.6
2022-12-15T17:00:14.392Z,88.5
2022-12-15T17:01:30.695Z,88.8
2022-12-15T17:02:46.992Z,89
2022-12-15T17:04:03.290Z,88.4
2022-12-15T17:05:19.583Z,87.6
2022-12-15T17:06:35.866Z,87.1
2022-12-15T17:07:52.175Z,86.9
2022-12-15T17:09:08.472Z,86.5
2022-12-15T17:10:24.758Z,86.2
2022-12-15T17:11:41.054Z,86.4
2022-12-15T17:12:56.360Z,86.3
2022-12-15T17:14:12.673Z,86.1
2022-12-15T17:15:28.970Z,86.5
2022-12-15T17:16:45.244Z,86.5
2022-12-15T17:18:01.542Z,86.5
2022-12-15T17:19:17.842Z,86.8
2022-12-15T17:20:34.145Z,87.3
2022-12-15T17:21:50.437Z,87.2
2022-12-15T17:23:06.722Z,87
2022-12-15T17:24:23.027Z,86.6
2022-12-15T17:25:39.315Z,86.4
2022-12-15T17:26:55.618Z,86.7
2022-12-15T17:28:11.925Z,86.9
2022-12-15T17:29:27.215Z,87
2022-12-15T17:30:43.513Z,87.3
2022-12-15T17:31:59.814Z,87.8
2022-12-15T17:33:16.106Z,88.1
2022-12-15T17:34:32.408Z,88.2
2022-12-15T17:35:48.694Z,88.3
2022-12-15T17:37:04.986Z,88.3
2022-12-15T17:38:21.286Z,88.3
2022-12-15T17:39:37.591Z,87.9
2022-12-15T17:40:53.875Z,87.6
2022-12-15T17:42:10.178Z,87.8
2022-12-15T17:43:26.477Z,87.9
2022-12-15T17:44:42.763Z,87.8
2022-12-15T17:45:58.081Z,87.7
2022-12-15T17:47:14.366Z,87.9
2022-12-15T17:48:30.667Z,87.5
2022-12-15T17:49:46.960Z,87.6
2022-12-15T17:51:03.256Z,87.5
2022-12-15T17:52:19.561Z,87.1
2022-12-15T17:53:35.859Z,87
2022-12-15T17:54:52.137Z,87.2
2022-12-15T17:56:08.443Z,87.5
2022-12-15T17:57:24.733Z,87.3
2022-12-15T17:58:41.040Z,87
2022-12-15T17:59:57.314Z,86.8
2022-12-15T18:01:13.611Z,87
2022-12-15T18:02:28.954Z,87.3
2022-12-15T18:03:45.242Z,87.5
2022-12-15T18:05:01.528Z,87.9
2022-12-15T18:06:17.823Z,88
2022-12-15T18:07:34.107Z,88
2022-12-15T18:08:50.413Z,88.1
2022-12-15T18:10:06.713Z,87.7
2022-12-15T18:11:23.000Z,87.5
2022-12-15T18:13:55.596Z,87.3
2022-12-15T18:15:11.896Z,87.2
2022-12-15T18:16:28.175Z,86.7
2022-12-15T18:17:44.469Z,86.1
2022-12-15T18:18:59.791Z,85.7
2022-12-15T18:20:16.081Z,85.8
2022-12-15T18:21:32.389Z,86.7
2022-12-15T18:22:48.675Z,87.4
2022-12-15T18:24:04.988Z,87.7
2022-12-15T18:25:21.256Z,87.9
2022-12-15T18:26:37.556Z,88.5
2022-12-15T18:27:53.858Z,88.9
2022-12-15T18:29:10.156Z,88.5
2022-12-15T18:30:26.438Z,88.4
2022-12-15T18:31:42.746Z,88.5
2022-12-15T18:34:15.330Z,88
2022-12-15T18:35:30.650Z,88.4
2022-12-15T18:36:46.929Z,89.1
2022-12-15T18:38:03.251Z,89.1
2022-12-15T18:39:19.542Z,89
2022-12-15T18:40:35.830Z,89.1
2022-12-15T18:41:52.130Z,89.1
2022-12-15T18:43:08.425Z,89.3
2022-12-15T18:44:24.713Z,89.4
2022-12-15T18:45:41.010Z,89.3
2022-12-15T18:46:57.323Z,89.4
2022-12-15T18:48:13.598Z,89.8
2022-12-15T18:49:29.891Z,90.2
2022-12-15T18:50:46.195Z,89.8
2022-12-15T18:52:01.504Z,89.8
2022-12-15T18:53:17.801Z,90
2022-12-15T18:54:34.082Z,89.9
2022-12-15T18:55:50.380Z,89.6
2022-12-15T18:57:06.674Z,89.2
2022-12-15T18:59:39.279Z,88.9
2022-12-15T19:00:55.566Z,88.9
2022-12-15T19:02:11.862Z,88.6
2022-12-15T19:03:28.154Z,88
2022-12-15T19:04:44.462Z,88
2022-12-15T19:06:00.751Z,87.7
2022-12-15T19:07:17.066Z,88
2022-12-15T19:08:32.357Z,87.6
2022-12-15T19:09:48.648Z,87.7
2022-12-15T19:11:04.941Z,88.3
2022-12-15T19:12:21.260Z,88.3
2022-12-15T19:14:53.837Z,88.6
2022-12-15T19:16:10.134Z,88.9
2022-12-15T19:17:26.422Z,88.9
2022-12-15T19:18:42.713Z,88.2
2022-12-15T19:19:59.012Z,88.3
2022-12-15T19:21:15.320Z,88.7
2022-12-15T19:22:31.628Z,88.5
2022-12-15T19:23:47.919Z,88.1
2022-12-15T19:25:03.223Z,88
2022-12-15T19:26:19.509Z,88
2022-12-15T19:27:35.803Z,88.3
2022-12-15T19:28:52.107Z,88.2
2022-12-15T19:30:08.391Z,88.6
2022-12-15T19:31:24.691Z,88.8
2022-12-15T19:32:40.984Z,88.7
2022-12-15T19:33:57.278Z,88.2
2022-12-15T19:35:13.584Z,88.5
2022-12-15T19:36:29.872Z,88.5
2022-12-15T19:37:46.174Z,87.7
2022-12-15T19:39:02.477Z,87.8
2022-12-15T19:40:18.760Z,87.5
2022-12-15T19:41:34.080Z,87.7
2022-12-15T19:42:50.377Z,87.9
2022-12-15T19:44:06.673Z,87.6
2022-12-15T19:45:22.978Z,87.2
2022-12-15T19:46:39.268Z,86.7
2022-12-15T19:47:55.548Z,87.4
2022-12-15T19:49:11.857Z,87.6
2022-12-15T19:50:28.145Z,88
2022-12-15T19:53:00.738Z,89
2022-12-15T19:54:17.020Z,89.3
2022-12-15T19:55:33.332Z,89.2
2022-12-15T19:56:49.621Z,88.8
2022-12-15T19:58:04.938Z,88.7
2022-12-15T19:59:21.231Z,88.7
2022-12-15T20:00:37.531Z,88.6
2022-12-15T20:01:53.814Z,88.4
2022-12-15T20:03:10.122Z,88.3
2022-12-15T20:04:26.405Z,88.1
2022-12-15T20:05:42.715Z,87.8
2022-12-15T20:06:58.993Z,87.2
2022-12-15T20:08:15.288Z,86.7
2022-12-15T20:09:31.600Z,87.6